Bindloss, Canada
Current Conditions -  °F | °C
As of 9:00 AM on Friday 24 Oct 2014 (Local Time) from CYXH Reporting Station
Broken Clouds Broken Clouds  
Wind Chill: 42°   Ceiling: 28000
Heat Index: 48°   Visibility: 30mi
Dew Point: 28°   Wind: 16mph
Humidity: 46%   Direction: 250°WSW
Pressure: 29.88"   Gusts: NA
Location:  50.88°N, 110.27°W
Report Text: CYXH 241500Z 25014KT 30SM BKN280 09/M02 A2988 RMK CI6 SLP125
Loading
Personal Weather Stations






























Interactive Weather Map
Tropical Storm Tracking
New forecast layout! Learn more

10-Day Weather Forecast

Advertisements
Track Severe Weather on mobile